Strona główna
METAR-TAF:

METAR-TAF

Lotnisko :

Sliač, Słowacja

Port lotniczy Sliač

Szerokość geograficzna: 48-38-17N, Długość geograficzna: 019-08-03E, wysokość: 318 m

Aktualna obserwacja pogody

Raport powstał 28 minut temu, godzina 19:30 UTC
Wiatr 11 kt od północ
Temperatura -9°C
Wilgotność 52%
Ciśnienie 1021 hPa
Widzialność 10 km lub więcej
Brak chmur poniżej 1500 m i brak chmur cumulonimbus

METAR: LZSL 251930Z 01011KT CAVOK M09/M17 Q1021

czas: 20:58 (19:58 UTC)

Prognoza

Raport powstał 2 godziny i 58 minut temu, godzina 17:00 UTC
Prognoza ważna od 25 godzina 18 UTC do 26 godzina 03 UTC
Wiatr 4 kt od północ
Widzialność 10 km lub więcej
Brak chmur poniżej 1500 m i brak chmur cumulonimbus

TAF: LZSL 251700Z 2518/2603 01004KT CAVOK

Obserwacja i prognoza pogody dla ponad 4000 lotnisk (raport METAR i TAF).

Dostępne stacje oznaczono żółtymi i czerwonymi punktami na mapie.

Najedź kursorem aby zobaczyć nazwę stacji.

Kliknij aby zobaczyć obserwacje i prognozy pogody.

Aby zmienić mapę: kliknij na zielony przycisk z czarnym krzyżykiem, aby powiększyć; na zielony przycisk z myślnikiem, aby pomniejszyć; na zielone strzałki, aby przejść do map sąsiednich.


METAR-TAF: